sensor_id;sensor_type;location;lat;lon;timestamp;P1;durP1;ratioP1;P2;durP2;ratioP2
4430;SDS011;2228;48.140;11.488;2024-02-04T00:00:27;7.93;;;4.45;;
4430;SDS011;2228;48.140;11.488;2024-02-04T00:02:55;9.05;;;4.43;;
4430;SDS011;2228;48.140;11.488;2024-02-04T00:05:23;8.07;;;4.07;;
4430;SDS011;2228;48.140;11.488;2024-02-04T00:07:51;7.00;;;4.50;;
4430;SDS011;2228;48.140;11.488;2024-02-04T00:10:18;5.13;;;3.38;;
4430;SDS011;2228;48.140;11.488;2024-02-04T00:12:45;6.43;;;4.00;;
4430;SDS011;2228;48.140;11.488;2024-02-04T00:15:12;5.40;;;3.40;;
4430;SDS011;2228;48.140;11.488;2024-02-04T00:17:40;6.60;;;3.60;;
4430;SDS011;2228;48.140;11.488;2024-02-04T00:20:07;5.10;;;3.40;;
4430;SDS011;2228;48.140;11.488;2024-02-04T00:22:36;6.10;;;4.00;;
4430;SDS011;2228;48.140;11.488;2024-02-04T00:25:03;5.88;;;4.10;;
4430;SDS011;2228;48.140;11.488;2024-02-04T00:27:31;6.45;;;4.60;;
4430;SDS011;2228;48.140;11.488;2024-02-04T00:29:58;5.47;;;4.53;;
4430;SDS011;2228;48.140;11.488;2024-02-04T00:32:26;7.18;;;4.60;;
4430;SDS011;2228;48.140;11.488;2024-02-04T00:34:53;4.97;;;4.30;;
4430;SDS011;2228;48.140;11.488;2024-02-04T00:37:21;7.07;;;3.78;;
4430;SDS011;2228;48.140;11.488;2024-02-04T00:39:49;7.25;;;4.05;;
4430;SDS011;2228;48.140;11.488;2024-02-04T00:42:17;5.43;;;3.93;;
4430;SDS011;2228;48.140;11.488;2024-02-04T00:44:44;6.53;;;4.40;;
4430;SDS011;2228;48.140;11.488;2024-02-04T00:47:11;6.68;;;4.20;;
4430;SDS011;2228;48.140;11.488;2024-02-04T00:49:39;6.93;;;4.65;;
4430;SDS011;2228;48.140;11.488;2024-02-04T00:52:06;5.68;;;4.50;;
4430;SDS011;2228;48.140;11.488;2024-02-04T00:54:33;6.15;;;4.28;;
4430;SDS011;2228;48.140;11.488;2024-02-04T00:57:02;8.30;;;5.05;;
4430;SDS011;2228;48.140;11.488;2024-02-04T00:59:29;6.65;;;4.75;;
4430;SDS011;2228;48.140;11.488;2024-02-04T01:01:57;8.07;;;5.28;;
4430;SDS011;2228;48.140;11.488;2024-02-04T01:04:24;8.27;;;5.30;;
4430;SDS011;2228;48.140;11.488;2024-02-04T01:06:51;11.93;;;5.80;;
4430;SDS011;2228;48.140;11.488;2024-02-04T01:09:19;8.40;;;5.80;;
4430;SDS011;2228;48.140;11.488;2024-02-04T01:11:46;8.60;;;5.72;;
4430;SDS011;2228;48.140;11.488;2024-02-04T01:14:14;7.68;;;5.80;;
4430;SDS011;2228;48.140;11.488;2024-02-04T01:16:42;9.57;;;6.35;;
4430;SDS011;2228;48.140;11.488;2024-02-04T01:19:09;7.60;;;5.30;;
4430;SDS011;2228;48.140;11.488;2024-02-04T01:21:37;8.77;;;5.60;;
4430;SDS011;2228;48.140;11.488;2024-02-04T01:24:04;8.97;;;5.67;;
4430;SDS011;2228;48.140;11.488;2024-02-04T01:26:34;8.45;;;5.05;;
4430;SDS011;2228;48.140;11.488;2024-02-04T01:29:01;10.20;;;5.97;;
4430;SDS011;2228;48.140;11.488;2024-02-04T01:31:30;7.95;;;5.60;;
4430;SDS011;2228;48.140;11.488;2024-02-04T01:33:57;9.82;;;5.72;;
4430;SDS011;2228;48.140;11.488;2024-02-04T01:36:24;7.85;;;5.95;;
4430;SDS011;2228;48.140;11.488;2024-02-04T01:38:51;9.25;;;5.35;;
4430;SDS011;2228;48.140;11.488;2024-02-04T01:41:18;10.18;;;5.80;;
4430;SDS011;2228;48.140;11.488;2024-02-04T01:43:46;8.05;;;5.50;;
4430;SDS011;2228;48.140;11.488;2024-02-04T01:46:13;9.40;;;6.13;;
4430;SDS011;2228;48.140;11.488;2024-02-04T01:48:41;8.03;;;5.40;;
4430;SDS011;2228;48.140;11.488;2024-02-04T01:51:09;9.25;;;6.25;;
4430;SDS011;2228;48.140;11.488;2024-02-04T01:53:36;8.70;;;6.00;;
4430;SDS011;2228;48.140;11.488;2024-02-04T01:56:05;8.50;;;5.88;;
4430;SDS011;2228;48.140;11.488;2024-02-04T01:58:34;9.83;;;5.80;;
4430;SDS011;2228;48.140;11.488;2024-02-04T02:01:01;8.13;;;5.22;;
4430;SDS011;2228;48.140;11.488;2024-02-04T02:03:29;7.78;;;4.65;;
4430;SDS011;2228;48.140;11.488;2024-02-04T02:05:59;6.80;;;5.43;;
4430;SDS011;2228;48.140;11.488;2024-02-04T02:08:26;7.07;;;5.00;;
4430;SDS011;2228;48.140;11.488;2024-02-04T02:10:56;7.03;;;4.90;;
4430;SDS011;2228;48.140;11.488;2024-02-04T02:13:25;7.10;;;5.05;;
4430;SDS011;2228;48.140;11.488;2024-02-04T02:15:56;8.13;;;5.38;;
4430;SDS011;2228;48.140;11.488;2024-02-04T02:18:27;7.32;;;4.75;;
4430;SDS011;2228;48.140;11.488;2024-02-04T02:21:07;9.27;;;5.10;;
4430;SDS011;2228;48.140;11.488;2024-02-04T02:23:40;7.18;;;5.25;;
4430;SDS011;2228;48.140;11.488;2024-02-04T02:26:11;7.93;;;5.40;;
4430;SDS011;2228;48.140;11.488;2024-02-04T02:28:40;9.00;;;5.40;;
4430;SDS011;2228;48.140;11.488;2024-02-04T02:31:07;9.98;;;5.28;;
4430;SDS011;2228;48.140;11.488;2024-02-04T02:33:34;6.55;;;4.70;;
4430;SDS011;2228;48.140;11.488;2024-02-04T02:36:02;7.50;;;5.07;;
4430;SDS011;2228;48.140;11.488;2024-02-04T02:38:33;6.07;;;4.50;;
4430;SDS011;2228;48.140;11.488;2024-02-04T02:41:04;6.10;;;4.27;;
4430;SDS011;2228;48.140;11.488;2024-02-04T02:43:35;8.00;;;5.13;;
4430;SDS011;2228;48.140;11.488;2024-02-04T02:46:02;7.03;;;4.78;;
4430;SDS011;2228;48.140;11.488;2024-02-04T02:48:29;6.60;;;4.78;;
4430;SDS011;2228;48.140;11.488;2024-02-04T02:50:57;6.85;;;4.65;;
4430;SDS011;2228;48.140;11.488;2024-02-04T02:53:24;7.00;;;4.20;;
4430;SDS011;2228;48.140;11.488;2024-02-04T02:55:51;7.63;;;4.40;;
4430;SDS011;2228;48.140;11.488;2024-02-04T02:58:19;5.32;;;4.22;;
4430;SDS011;2228;48.140;11.488;2024-02-04T03:00:47;6.22;;;4.00;;
4430;SDS011;2228;48.140;11.488;2024-02-04T03:03:14;8.10;;;4.30;;
4430;SDS011;2228;48.140;11.488;2024-02-04T03:05:42;6.15;;;4.00;;
4430;SDS011;2228;48.140;11.488;2024-02-04T03:08:12;6.05;;;3.40;;
4430;SDS011;2228;48.140;11.488;2024-02-04T03:10:39;5.88;;;3.60;;
4430;SDS011;2228;48.140;11.488;2024-02-04T03:13:06;6.32;;;4.13;;
4430;SDS011;2228;48.140;11.488;2024-02-04T03:15:33;5.97;;;3.83;;
4430;SDS011;2228;48.140;11.488;2024-02-04T03:18:02;4.70;;;3.10;;
4430;SDS011;2228;48.140;11.488;2024-02-04T03:20:29;5.30;;;3.70;;
4430;SDS011;2228;48.140;11.488;2024-02-04T03:22:57;6.20;;;3.67;;
4430;SDS011;2228;48.140;11.488;2024-02-04T03:25:24;4.75;;;3.10;;
4430;SDS011;2228;48.140;11.488;2024-02-04T03:27:53;6.38;;;3.88;;
4430;SDS011;2228;48.140;11.488;2024-02-04T03:30:20;7.78;;;3.80;;
4430;SDS011;2228;48.140;11.488;2024-02-04T03:32:47;5.60;;;3.87;;
4430;SDS011;2228;48.140;11.488;2024-02-04T03:35:16;4.75;;;3.30;;
4430;SDS011;2228;48.140;11.488;2024-02-04T03:37:43;7.22;;;3.65;;
4430;SDS011;2228;48.140;11.488;2024-02-04T03:40:11;6.00;;;3.60;;
4430;SDS011;2228;48.140;11.488;2024-02-04T03:42:38;5.75;;;3.30;;
4430;SDS011;2228;48.140;11.488;2024-02-04T03:45:06;4.03;;;3.13;;
4430;SDS011;2228;48.140;11.488;2024-02-04T03:47:33;4.63;;;3.47;;
4430;SDS011;2228;48.140;11.488;2024-02-04T03:50:01;7.50;;;3.33;;
4430;SDS011;2228;48.140;11.488;2024-02-04T03:52:30;5.95;;;3.70;;
4430;SDS011;2228;48.140;11.488;2024-02-04T03:54:57;6.50;;;2.53;;
4430;SDS011;2228;48.140;11.488;2024-02-04T03:57:25;6.03;;;3.40;;
4430;SDS011;2228;48.140;11.488;2024-02-04T03:59:52;5.00;;;3.50;;
4430;SDS011;2228;48.140;11.488;2024-02-04T04:02:19;4.63;;;3.03;;
4430;SDS011;2228;48.140;11.488;2024-02-04T04:04:46;4.97;;;2.78;;
4430;SDS011;2228;48.140;11.488;2024-02-04T04:07:14;4.43;;;3.15;;
4430;SDS011;2228;48.140;11.488;2024-02-04T04:09:42;5.10;;;3.10;;
4430;SDS011;2228;48.140;11.488;2024-02-04T04:12:09;5.45;;;3.58;;
4430;SDS011;2228;48.140;11.488;2024-02-04T04:14:37;3.10;;;2.38;;
4430;SDS011;2228;48.140;11.488;2024-02-04T04:17:04;3.92;;;2.47;;
4430;SDS011;2228;48.140;11.488;2024-02-04T04:19:31;3.50;;;2.60;;
4430;SDS011;2228;48.140;11.488;2024-02-04T04:22:01;4.00;;;3.00;;
4430;SDS011;2228;48.140;11.488;2024-02-04T04:24:28;4.37;;;2.53;;
4430;SDS011;2228;48.140;11.488;2024-02-04T04:26:57;4.60;;;3.20;;
4430;SDS011;2228;48.140;11.488;2024-02-04T04:29:25;3.70;;;2.60;;
4430;SDS011;2228;48.140;11.488;2024-02-04T04:31:52;3.20;;;2.30;;
4430;SDS011;2228;48.140;11.488;2024-02-04T04:34:19;4.23;;;2.73;;
4430;SDS011;2228;48.140;11.488;2024-02-04T04:36:46;4.18;;;2.50;;
4430;SDS011;2228;48.140;11.488;2024-02-04T04:39:13;3.28;;;2.50;;
4430;SDS011;2228;48.140;11.488;2024-02-04T04:41:43;2.75;;;1.80;;
4430;SDS011;2228;48.140;11.488;2024-02-04T04:44:12;3.38;;;1.92;;
4430;SDS011;2228;48.140;11.488;2024-02-04T04:46:39;2.83;;;2.10;;
4430;SDS011;2228;48.140;11.488;2024-02-04T04:49:06;2.90;;;2.00;;
4430;SDS011;2228;48.140;11.488;2024-02-04T04:51:33;2.85;;;1.60;;
4430;SDS011;2228;48.140;11.488;2024-02-04T04:54:01;3.58;;;1.98;;
4430;SDS011;2228;48.140;11.488;2024-02-04T04:56:28;2.92;;;2.00;;
4430;SDS011;2228;48.140;11.488;2024-02-04T04:58:55;4.38;;;1.90;;
4430;SDS011;2228;48.140;11.488;2024-02-04T05:01:24;3.40;;;1.90;;
4430;SDS011;2228;48.140;11.488;2024-02-04T05:03:51;2.75;;;1.90;;
4430;SDS011;2228;48.140;11.488;2024-02-04T05:06:18;4.22;;;1.80;;
4430;SDS011;2228;48.140;11.488;2024-02-04T05:08:45;3.95;;;2.00;;
4430;SDS011;2228;48.140;11.488;2024-02-04T05:11:12;3.78;;;2.00;;
4430;SDS011;2228;48.140;11.488;2024-02-04T05:13:40;4.07;;;1.85;;
4430;SDS011;2228;48.140;11.488;2024-02-04T05:16:07;2.60;;;1.95;;
4430;SDS011;2228;48.140;11.488;2024-02-04T05:18:35;3.00;;;2.30;;
4430;SDS011;2228;48.140;11.488;2024-02-04T05:21:03;2.70;;;2.10;;
4430;SDS011;2228;48.140;11.488;2024-02-04T05:23:30;3.60;;;2.00;;
4430;SDS011;2228;48.140;11.488;2024-02-04T05:25:57;4.53;;;2.60;;
4430;SDS011;2228;48.140;11.488;2024-02-04T05:28:24;2.40;;;1.80;;
4430;SDS011;2228;48.140;11.488;2024-02-04T05:30:52;4.40;;;2.20;;
4430;SDS011;2228;48.140;11.488;2024-02-04T05:33:19;4.00;;;2.10;;
4430;SDS011;2228;48.140;11.488;2024-02-04T05:35:48;5.03;;;2.30;;
4430;SDS011;2228;48.140;11.488;2024-02-04T05:38:15;6.30;;;2.40;;
4430;SDS011;2228;48.140;11.488;2024-02-04T05:40:43;3.85;;;2.30;;
4430;SDS011;2228;48.140;11.488;2024-02-04T05:43:10;5.43;;;2.73;;
4430;SDS011;2228;48.140;11.488;2024-02-04T05:45:37;3.95;;;2.60;;
4430;SDS011;2228;48.140;11.488;2024-02-04T05:48:06;7.40;;;3.30;;
4430;SDS011;2228;48.140;11.488;2024-02-04T05:50:33;4.03;;;2.72;;
4430;SDS011;2228;48.140;11.488;2024-02-04T05:53:02;7.32;;;2.95;;
4430;SDS011;2228;48.140;11.488;2024-02-04T05:55:29;7.25;;;3.25;;
4430;SDS011;2228;48.140;11.488;2024-02-04T05:57:57;6.05;;;3.30;;
4430;SDS011;2228;48.140;11.488;2024-02-04T06:00:24;7.10;;;3.50;;
4430;SDS011;2228;48.140;11.488;2024-02-04T06:02:51;4.55;;;2.85;;
4430;SDS011;2228;48.140;11.488;2024-02-04T06:05:18;9.73;;;3.10;;
4430;SDS011;2228;48.140;11.488;2024-02-04T06:07:46;5.90;;;3.60;;
4430;SDS011;2228;48.140;11.488;2024-02-04T06:10:14;6.00;;;3.38;;
4430;SDS011;2228;48.140;11.488;2024-02-04T06:12:43;6.35;;;3.30;;
4430;SDS011;2228;48.140;11.488;2024-02-04T06:15:14;7.60;;;3.17;;
4430;SDS011;2228;48.140;11.488;2024-02-04T06:17:41;6.55;;;3.50;;
4430;SDS011;2228;48.140;11.488;2024-02-04T06:20:09;8.00;;;3.13;;
4430;SDS011;2228;48.140;11.488;2024-02-04T06:22:36;8.10;;;3.30;;
4430;SDS011;2228;48.140;11.488;2024-02-04T06:25:04;7.28;;;3.40;;
4430;SDS011;2228;48.140;11.488;2024-02-04T06:27:32;5.70;;;3.10;;
4430;SDS011;2228;48.140;11.488;2024-02-04T06:30:00;4.38;;;3.00;;
4430;SDS011;2228;48.140;11.488;2024-02-04T06:32:27;5.63;;;2.50;;
4430;SDS011;2228;48.140;11.488;2024-02-04T06:34:54;4.60;;;2.95;;
4430;SDS011;2228;48.140;11.488;2024-02-04T06:37:23;5.63;;;2.90;;
4430;SDS011;2228;48.140;11.488;2024-02-04T06:39:50;9.50;;;2.90;;
4430;SDS011;2228;48.140;11.488;2024-02-04T06:42:17;6.32;;;3.08;;
4430;SDS011;2228;48.140;11.488;2024-02-04T06:44:46;4.93;;;2.92;;
4430;SDS011;2228;48.140;11.488;2024-02-04T06:47:13;5.43;;;3.60;;
4430;SDS011;2228;48.140;11.488;2024-02-04T06:49:43;6.60;;;3.90;;
4430;SDS011;2228;48.140;11.488;2024-02-04T06:52:10;6.80;;;3.53;;
4430;SDS011;2228;48.140;11.488;2024-02-04T06:54:37;6.05;;;3.88;;
4430;SDS011;2228;48.140;11.488;2024-02-04T06:57:04;8.37;;;3.93;;
4430;SDS011;2228;48.140;11.488;2024-02-04T06:59:31;10.52;;;4.57;;
4430;SDS011;2228;48.140;11.488;2024-02-04T07:01:59;9.90;;;5.13;;
4430;SDS011;2228;48.140;11.488;2024-02-04T07:04:28;9.83;;;6.00;;
4430;SDS011;2228;48.140;11.488;2024-02-04T07:06:57;10.10;;;5.37;;
4430;SDS011;2228;48.140;11.488;2024-02-04T07:09:24;12.05;;;5.20;;
4430;SDS011;2228;48.140;11.488;2024-02-04T07:11:51;9.80;;;5.70;;
4430;SDS011;2228;48.140;11.488;2024-02-04T07:14:18;12.05;;;5.53;;
4430;SDS011;2228;48.140;11.488;2024-02-04T07:16:46;9.93;;;5.20;;
4430;SDS011;2228;48.140;11.488;2024-02-04T07:19:14;12.37;;;6.00;;
4430;SDS011;2228;48.140;11.488;2024-02-04T07:21:41;11.35;;;5.10;;
4430;SDS011;2228;48.140;11.488;2024-02-04T07:24:09;17.33;;;6.87;;
4430;SDS011;2228;48.140;11.488;2024-02-04T07:26:36;9.93;;;5.70;;
4430;SDS011;2228;48.140;11.488;2024-02-04T07:29:03;9.55;;;6.15;;
4430;SDS011;2228;48.140;11.488;2024-02-04T07:31:30;10.52;;;5.10;;
4430;SDS011;2228;48.140;11.488;2024-02-04T07:33:58;9.30;;;5.10;;
4430;SDS011;2228;48.140;11.488;2024-02-04T07:36:26;8.15;;;4.90;;
4430;SDS011;2228;48.140;11.488;2024-02-04T07:38:53;11.70;;;4.82;;
4430;SDS011;2228;48.140;11.488;2024-02-04T07:41:20;11.20;;;4.50;;
4430;SDS011;2228;48.140;11.488;2024-02-04T07:43:48;13.40;;;5.35;;
4430;SDS011;2228;48.140;11.488;2024-02-04T07:46:15;9.63;;;5.30;;
4430;SDS011;2228;48.140;11.488;2024-02-04T07:48:42;12.20;;;4.93;;
4430;SDS011;2228;48.140;11.488;2024-02-04T07:51:09;11.13;;;4.43;;
4430;SDS011;2228;48.140;11.488;2024-02-04T07:53:38;11.30;;;5.00;;
4430;SDS011;2228;48.140;11.488;2024-02-04T07:56:05;6.93;;;3.83;;
4430;SDS011;2228;48.140;11.488;2024-02-04T07:58:33;9.57;;;4.20;;
4430;SDS011;2228;48.140;11.488;2024-02-04T08:01:00;12.10;;;4.70;;
4430;SDS011;2228;48.140;11.488;2024-02-04T08:03:27;10.23;;;4.05;;
4430;SDS011;2228;48.140;11.488;2024-02-04T08:05:56;10.25;;;4.70;;
4430;SDS011;2228;48.140;11.488;2024-02-04T08:08:23;10.60;;;4.20;;
4430;SDS011;2228;48.140;11.488;2024-02-04T08:10:52;11.00;;;4.38;;
4430;SDS011;2228;48.140;11.488;2024-02-04T08:13:20;8.93;;;3.50;;
4430;SDS011;2228;48.140;11.488;2024-02-04T08:15:47;10.40;;;3.27;;
4430;SDS011;2228;48.140;11.488;2024-02-04T08:18:15;8.20;;;3.38;;
4430;SDS011;2228;48.140;11.488;2024-02-04T08:20:42;5.95;;;2.90;;
4430;SDS011;2228;48.140;11.488;2024-02-04T08:23:09;7.38;;;2.95;;
4430;SDS011;2228;48.140;11.488;2024-02-04T08:25:36;10.77;;;3.50;;
4430;SDS011;2228;48.140;11.488;2024-02-04T08:28:05;8.10;;;3.50;;
4430;SDS011;2228;48.140;11.488;2024-02-04T08:30:32;5.68;;;2.92;;
4430;SDS011;2228;48.140;11.488;2024-02-04T08:32:59;8.38;;;3.15;;
4430;SDS011;2228;48.140;11.488;2024-02-04T08:35:26;8.48;;;2.75;;
4430;SDS011;2228;48.140;11.488;2024-02-04T08:37:54;8.23;;;2.70;;
4430;SDS011;2228;48.140;11.488;2024-02-04T08:40:21;6.17;;;2.77;;
4430;SDS011;2228;48.140;11.488;2024-02-04T08:42:48;8.27;;;3.15;;
4430;SDS011;2228;48.140;11.488;2024-02-04T08:45:17;6.57;;;2.50;;
4430;SDS011;2228;48.140;11.488;2024-02-04T08:47:44;6.53;;;2.70;;
4430;SDS011;2228;48.140;11.488;2024-02-04T08:50:11;8.38;;;3.60;;
4430;SDS011;2228;48.140;11.488;2024-02-04T08:52:39;7.80;;;2.63;;
4430;SDS011;2228;48.140;11.488;2024-02-04T08:55:06;8.90;;;3.25;;
4430;SDS011;2228;48.140;11.488;2024-02-04T08:57:34;8.13;;;2.90;;
4430;SDS011;2228;48.140;11.488;2024-02-04T09:00:01;9.10;;;3.30;;
4430;SDS011;2228;48.140;11.488;2024-02-04T09:02:30;7.55;;;3.20;;
4430;SDS011;2228;48.140;11.488;2024-02-04T09:04:58;5.53;;;3.63;;
4430;SDS011;2228;48.140;11.488;2024-02-04T09:07:25;8.57;;;2.70;;
4430;SDS011;2228;48.140;11.488;2024-02-04T09:09:52;10.20;;;3.78;;
4430;SDS011;2228;48.140;11.488;2024-02-04T09:12:19;7.63;;;3.38;;
4430;SDS011;2228;48.140;11.488;2024-02-04T09:14:47;7.78;;;3.20;;
4430;SDS011;2228;48.140;11.488;2024-02-04T09:17:14;5.70;;;3.30;;
4430;SDS011;2228;48.140;11.488;2024-02-04T09:19:42;9.68;;;3.55;;
4430;SDS011;2228;48.140;11.488;2024-02-04T09:22:10;5.35;;;2.90;;
4430;SDS011;2228;48.140;11.488;2024-02-04T09:24:37;7.85;;;3.05;;
4430;SDS011;2228;48.140;11.488;2024-02-04T09:27:04;5.03;;;2.77;;
4430;SDS011;2228;48.140;11.488;2024-02-04T09:29:31;7.25;;;3.03;;
4430;SDS011;2228;48.140;11.488;2024-02-04T09:31:59;6.22;;;2.70;;
4430;SDS011;2228;48.140;11.488;2024-02-04T09:34:27;4.72;;;2.65;;
4430;SDS011;2228;48.140;11.488;2024-02-04T09:36:56;10.75;;;3.50;;
4430;SDS011;2228;48.140;11.488;2024-02-04T09:39:23;12.00;;;3.55;;
4430;SDS011;2228;48.140;11.488;2024-02-04T09:41:51;6.22;;;2.97;;
4430;SDS011;2228;48.140;11.488;2024-02-04T09:44:18;5.50;;;3.13;;
4430;SDS011;2228;48.140;11.488;2024-02-04T09:46:46;8.40;;;3.17;;
4430;SDS011;2228;48.140;11.488;2024-02-04T09:49:13;8.30;;;3.38;;
4430;SDS011;2228;48.140;11.488;2024-02-04T09:51:40;8.20;;;3.97;;
4430;SDS011;2228;48.140;11.488;2024-02-04T09:54:09;10.67;;;3.70;;
4430;SDS011;2228;48.140;11.488;2024-02-04T09:56:37;9.70;;;3.20;;
4430;SDS011;2228;48.140;11.488;2024-02-04T09:59:05;10.23;;;4.30;;
4430;SDS011;2228;48.140;11.488;2024-02-04T10:01:32;7.82;;;3.90;;
4430;SDS011;2228;48.140;11.488;2024-02-04T10:04:01;6.88;;;3.25;;
4430;SDS011;2228;48.140;11.488;2024-02-04T10:06:28;8.77;;;4.13;;
4430;SDS011;2228;48.140;11.488;2024-02-04T10:08:56;8.52;;;3.42;;
4430;SDS011;2228;48.140;11.488;2024-02-04T10:11:24;7.88;;;3.60;;
4430;SDS011;2228;48.140;11.488;2024-02-04T10:13:51;10.60;;;3.90;;
4430;SDS011;2228;48.140;11.488;2024-02-04T10:16:19;8.05;;;3.88;;
4430;SDS011;2228;48.140;11.488;2024-02-04T10:18:47;9.98;;;3.60;;
4430;SDS011;2228;48.140;11.488;2024-02-04T10:21:15;7.90;;;4.40;;
4430;SDS011;2228;48.140;11.488;2024-02-04T10:23:49;9.15;;;4.03;;
4430;SDS011;2228;48.140;11.488;2024-02-04T10:26:17;9.87;;;3.80;;
4430;SDS011;2228;48.140;11.488;2024-02-04T10:28:46;6.25;;;3.65;;
4430;SDS011;2228;48.140;11.488;2024-02-04T10:31:14;5.70;;;3.40;;
4430;SDS011;2228;48.140;11.488;2024-02-04T10:33:41;9.13;;;4.05;;
4430;SDS011;2228;48.140;11.488;2024-02-04T10:36:08;4.97;;;3.35;;
4430;SDS011;2228;48.140;11.488;2024-02-04T10:38:36;9.50;;;4.10;;
4430;SDS011;2228;48.140;11.488;2024-02-04T10:41:03;7.80;;;3.28;;
4430;SDS011;2228;48.140;11.488;2024-02-04T10:43:31;7.50;;;3.40;;
4430;SDS011;2228;48.140;11.488;2024-02-04T10:46:01;10.20;;;3.20;;
4430;SDS011;2228;48.140;11.488;2024-02-04T10:48:29;9.20;;;3.10;;
4430;SDS011;2228;48.140;11.488;2024-02-04T10:50:57;6.80;;;3.30;;
4430;SDS011;2228;48.140;11.488;2024-02-04T10:53:25;7.68;;;3.03;;
4430;SDS011;2228;48.140;11.488;2024-02-04T10:55:52;6.82;;;2.63;;
4430;SDS011;2228;48.140;11.488;2024-02-04T10:58:23;3.83;;;2.60;;
4430;SDS011;2228;48.140;11.488;2024-02-04T11:00:52;6.90;;;2.70;;
4430;SDS011;2228;48.140;11.488;2024-02-04T11:03:21;7.57;;;2.47;;
4430;SDS011;2228;48.140;11.488;2024-02-04T11:05:52;3.70;;;1.98;;
4430;SDS011;2228;48.140;11.488;2024-02-04T11:08:21;8.60;;;2.78;;
4430;SDS011;2228;48.140;11.488;2024-02-04T11:10:48;3.78;;;2.10;;
4430;SDS011;2228;48.140;11.488;2024-02-04T11:13:17;3.88;;;1.88;;
4430;SDS011;2228;48.140;11.488;2024-02-04T11:15:48;4.25;;;2.00;;
4430;SDS011;2228;48.140;11.488;2024-02-04T11:18:24;4.55;;;1.63;;
4430;SDS011;2228;48.140;11.488;2024-02-04T11:21:02;3.65;;;1.80;;
4430;SDS011;2228;48.140;11.488;2024-02-04T11:23:39;2.78;;;1.60;;
4430;SDS011;2228;48.140;11.488;2024-02-04T11:26:08;4.85;;;1.83;;
4430;SDS011;2228;48.140;11.488;2024-02-04T11:28:36;4.00;;;1.40;;
4430;SDS011;2228;48.140;11.488;2024-02-04T11:31:04;7.05;;;2.20;;
4430;SDS011;2228;48.140;11.488;2024-02-04T11:33:33;3.70;;;1.90;;
4430;SDS011;2228;48.140;11.488;2024-02-04T11:36:02;4.00;;;1.33;;
4430;SDS011;2228;48.140;11.488;2024-02-04T11:38:31;6.40;;;1.33;;
4430;SDS011;2228;48.140;11.488;2024-02-04T11:40:58;4.88;;;1.90;;
4430;SDS011;2228;48.140;11.488;2024-02-04T11:43:27;2.40;;;1.20;;
4430;SDS011;2228;48.140;11.488;2024-02-04T11:45:54;4.95;;;1.40;;
4430;SDS011;2228;48.140;11.488;2024-02-04T11:48:28;3.95;;;1.20;;
4430;SDS011;2228;48.140;11.488;2024-02-04T11:50:59;4.00;;;1.40;;
4430;SDS011;2228;48.140;11.488;2024-02-04T11:53:28;3.05;;;1.60;;
4430;SDS011;2228;48.140;11.488;2024-02-04T11:55:57;2.30;;;1.13;;
4430;SDS011;2228;48.140;11.488;2024-02-04T11:58:27;3.60;;;1.30;;
4430;SDS011;2228;48.140;11.488;2024-02-04T12:00:55;3.80;;;1.60;;
4430;SDS011;2228;48.140;11.488;2024-02-04T12:03:30;3.28;;;1.20;;
4430;SDS011;2228;48.140;11.488;2024-02-04T12:05:59;4.20;;;1.17;;
4430;SDS011;2228;48.140;11.488;2024-02-04T12:08:26;2.72;;;0.98;;
4430;SDS011;2228;48.140;11.488;2024-02-04T12:10:54;4.53;;;1.37;;
4430;SDS011;2228;48.140;11.488;2024-02-04T12:13:22;3.42;;;1.23;;
4430;SDS011;2228;48.140;11.488;2024-02-04T12:15:50;2.67;;;1.45;;
4430;SDS011;2228;48.140;11.488;2024-02-04T12:18:17;2.90;;;1.25;;
4430;SDS011;2228;48.140;11.488;2024-02-04T12:20:46;3.60;;;1.30;;
4430;SDS011;2228;48.140;11.488;2024-02-04T12:23:15;4.10;;;1.20;;
4430;SDS011;2228;48.140;11.488;2024-02-04T12:25:42;1.85;;;1.05;;
4430;SDS011;2228;48.140;11.488;2024-02-04T12:28:09;2.65;;;1.27;;
4430;SDS011;2228;48.140;11.488;2024-02-04T12:30:37;3.90;;;1.10;;
4430;SDS011;2228;48.140;11.488;2024-02-04T12:33:05;4.57;;;1.50;;
4430;SDS011;2228;48.140;11.488;2024-02-04T12:35:34;3.10;;;2.10;;
4430;SDS011;2228;48.140;11.488;2024-02-04T12:38:01;3.63;;;1.20;;
4430;SDS011;2228;48.140;11.488;2024-02-04T12:40:30;3.75;;;1.15;;
4430;SDS011;2228;48.140;11.488;2024-02-04T12:42:58;3.03;;;1.00;;
4430;SDS011;2228;48.140;11.488;2024-02-04T12:45:27;5.45;;;1.40;;
4430;SDS011;2228;48.140;11.488;2024-02-04T12:47:56;4.72;;;1.10;;
4430;SDS011;2228;48.140;11.488;2024-02-04T12:50:24;2.47;;;1.10;;
4430;SDS011;2228;48.140;11.488;2024-02-04T12:53:01;5.75;;;1.38;;
4430;SDS011;2228;48.140;11.488;2024-02-04T12:55:29;4.05;;;1.20;;
4430;SDS011;2228;48.140;11.488;2024-02-04T12:58:04;4.10;;;1.30;;
4430;SDS011;2228;48.140;11.488;2024-02-04T13:00:31;3.55;;;1.27;;
4430;SDS011;2228;48.140;11.488;2024-02-04T13:02:59;4.03;;;1.20;;
4430;SDS011;2228;48.140;11.488;2024-02-04T13:05:26;4.85;;;1.70;;
4430;SDS011;2228;48.140;11.488;2024-02-04T13:07:56;7.05;;;1.20;;
4430;SDS011;2228;48.140;11.488;2024-02-04T13:10:24;2.35;;;1.15;;
4430;SDS011;2228;48.140;11.488;2024-02-04T13:12:59;4.88;;;1.40;;
4430;SDS011;2228;48.140;11.488;2024-02-04T13:15:26;2.08;;;1.23;;
4430;SDS011;2228;48.140;11.488;2024-02-04T13:17:54;5.60;;;1.40;;
4430;SDS011;2228;48.140;11.488;2024-02-04T13:20:21;2.70;;;1.40;;
4430;SDS011;2228;48.140;11.488;2024-02-04T13:22:48;2.80;;;1.40;;
4430;SDS011;2228;48.140;11.488;2024-02-04T13:25:16;4.03;;;1.50;;
4430;SDS011;2228;48.140;11.488;2024-02-04T13:27:43;4.15;;;1.20;;
4430;SDS011;2228;48.140;11.488;2024-02-04T13:30:11;3.80;;;1.30;;
4430;SDS011;2228;48.140;11.488;2024-02-04T13:32:39;2.60;;;1.45;;
4430;SDS011;2228;48.140;11.488;2024-02-04T13:35:07;5.40;;;1.50;;
4430;SDS011;2228;48.140;11.488;2024-02-04T13:37:35;2.00;;;1.20;;
4430;SDS011;2228;48.140;11.488;2024-02-04T13:40:02;4.00;;;1.70;;
4430;SDS011;2228;48.140;11.488;2024-02-04T13:42:31;2.50;;;1.73;;
4430;SDS011;2228;48.140;11.488;2024-02-04T13:44:58;5.20;;;1.60;;
4430;SDS011;2228;48.140;11.488;2024-02-04T13:47:28;4.13;;;1.67;;
4430;SDS011;2228;48.140;11.488;2024-02-04T13:49:55;3.22;;;1.50;;
4430;SDS011;2228;48.140;11.488;2024-02-04T13:52:23;3.95;;;1.50;;
4430;SDS011;2228;48.140;11.488;2024-02-04T13:54:50;2.60;;;1.17;;
4430;SDS011;2228;48.140;11.488;2024-02-04T13:57:17;4.60;;;1.30;;
4430;SDS011;2228;48.140;11.488;2024-02-04T13:59:44;4.75;;;1.50;;
4430;SDS011;2228;48.140;11.488;2024-02-04T14:02:12;3.78;;;1.60;;
4430;SDS011;2228;48.140;11.488;2024-02-04T14:04:40;3.65;;;1.60;;
4430;SDS011;2228;48.140;11.488;2024-02-04T14:07:07;2.47;;;1.30;;
4430;SDS011;2228;48.140;11.488;2024-02-04T14:09:35;2.88;;;1.23;;
4430;SDS011;2228;48.140;11.488;2024-02-04T14:12:03;4.33;;;1.60;;
4430;SDS011;2228;48.140;11.488;2024-02-04T14:14:30;6.68;;;1.75;;
4430;SDS011;2228;48.140;11.488;2024-02-04T14:16:58;4.28;;;1.60;;
4430;SDS011;2228;48.140;11.488;2024-02-04T14:19:25;3.05;;;1.30;;
4430;SDS011;2228;48.140;11.488;2024-02-04T14:21:53;5.30;;;1.90;;
4430;SDS011;2228;48.140;11.488;2024-02-04T14:24:20;4.45;;;1.20;;
4430;SDS011;2228;48.140;11.488;2024-02-04T14:26:48;2.85;;;1.33;;
4430;SDS011;2228;48.140;11.488;2024-02-04T14:29:15;5.45;;;1.23;;
4430;SDS011;2228;48.140;11.488;2024-02-04T14:31:42;5.47;;;1.60;;
4430;SDS011;2228;48.140;11.488;2024-02-04T14:34:09;3.20;;;1.30;;
4430;SDS011;2228;48.140;11.488;2024-02-04T14:36:37;4.77;;;1.10;;
4430;SDS011;2228;48.140;11.488;2024-02-04T14:39:05;4.45;;;1.40;;
4430;SDS011;2228;48.140;11.488;2024-02-04T14:41:34;4.55;;;1.80;;
4430;SDS011;2228;48.140;11.488;2024-02-04T14:44:01;5.30;;;1.50;;
4430;SDS011;2228;48.140;11.488;2024-02-04T14:46:29;4.75;;;1.50;;
4430;SDS011;2228;48.140;11.488;2024-02-04T14:48:56;5.05;;;1.50;;
4430;SDS011;2228;48.140;11.488;2024-02-04T14:51:23;3.55;;;1.60;;
4430;SDS011;2228;48.140;11.488;2024-02-04T14:53:50;4.22;;;1.33;;
4430;SDS011;2228;48.140;11.488;2024-02-04T14:56:19;2.78;;;1.60;;
4430;SDS011;2228;48.140;11.488;2024-02-04T14:58:46;6.88;;;1.50;;
4430;SDS011;2228;48.140;11.488;2024-02-04T15:01:13;3.17;;;1.42;;
4430;SDS011;2228;48.140;11.488;2024-02-04T15:03:41;4.45;;;1.60;;